Time;durP1;ratioP1;P1;durP2;ratioP2;P2;SDS_P1;SDS_P2;PMS_P1;PMS_P2;Temp;Humidity;BMP_temperature;BMP_pressure;BME280_temperature;BME280_humidity;BME280_pressure;Samples;Min_cycle;Max_cycle;Signal;HPM_P1;HPM_P2
2023/01/05 00:01:53;;;;;;;;;0.00;0.00;;;;;13.89;86.04;101791.00;5017228;28;45290;-65
2023/01/05 00:04:19;;;;;;;;;2.00;0.00;;;;;13.92;85.46;101792.66;5017392;28;45304;-64
2023/01/05 00:06:44;;;;;;;;;0.00;0.00;;;;;13.91;85.42;101789.13;5017836;28;45338;-64
2023/01/05 00:09:12;;;;;;;;;0.00;0.00;;;;;13.89;84.80;101785.66;5017730;28;45573;-65
2023/01/05 00:22:46;;;;;;;;;3.33;0.00;;;;;13.86;84.59;101784.00;5036919;28;45441;-65
2023/01/05 00:25:17;;;;;;;;;0.00;0.00;;;;;13.81;84.58;101774.50;5036763;28;45355;-64
2023/01/05 00:27:49;;;;;;;;;0.00;0.00;;;;;13.83;84.13;101785.97;5036240;28;45340;-64
2023/01/05 00:30:17;;;;;;;;;0.00;0.00;;;;;13.81;83.54;101778.03;5037329;28;45555;-65
2023/01/05 00:32:43;;;;;;;;;0.00;0.00;;;;;13.83;83.92;101785.97;5037124;28;46246;-66
2023/01/05 00:35:10;;;;;;;;;1.00;0.00;;;;;13.82;83.35;101765.53;5037141;28;45249;-64
2023/01/05 00:37:39;;;;;;;;;0.00;0.00;;;;;13.77;83.62;101762.22;5037469;28;45480;-65
2023/01/05 00:40:07;;;;;;;;;0.00;0.00;;;;;13.77;83.17;101767.56;5037012;28;45412;-65
2023/01/05 00:42:32;;;;;;;;;0.00;0.00;;;;;13.78;83.14;101771.97;5018894;28;47452;-63
2023/01/05 00:44:58;;;;;;;;;0.67;0.00;;;;;13.82;83.11;101778.91;5018524;28;45568;-65
2023/01/05 00:47:23;;;;;;;;;2.00;0.67;;;;;13.80;82.33;101779.00;5036736;28;45633;-62
2023/01/05 00:49:49;;;;;;;;;0.00;0.00;;;;;13.80;81.71;101791.47;5037485;28;45379;-65
2023/01/05 00:52:14;;;;;;;;;0.00;0.00;;;;;13.80;81.74;101784.34;5036732;28;46249;-64
2023/01/05 00:54:40;;;;;;;;;1.67;0.67;;;;;13.69;80.51;101786.69;5036780;28;45246;-64
2023/01/05 00:57:13;;;;;;;;;1.00;0.00;;;;;13.79;80.33;101798.63;5034699;28;45231;-66
2023/01/05 00:59:38;;;;;;;;;0.00;0.00;;;;;13.79;79.80;101789.72;5017060;28;45249;-67
2023/01/05 01:02:04;;;;;;;;;0.00;0.00;;;;;13.74;80.16;101794.47;5015646;28;45353;-63
2023/01/05 01:04:30;;;;;;;;;0.00;0.00;;;;;13.78;80.40;101796.03;5015126;28;45193;-64
2023/01/05 01:06:56;;;;;;;;;0.00;0.00;;;;;13.80;80.70;101794.13;5016629;28;45408;-63
2023/01/05 01:09:21;;;;;;;;;0.00;0.00;;;;;13.75;80.29;101786.34;5017241;28;45199;-63
2023/01/05 01:11:46;;;;;;;;;2.00;0.00;;;;;13.82;80.45;101789.59;5016168;28;45487;-63
2023/01/05 01:14:12;;;;;;;;;1.00;0.00;;;;;13.76;79.88;101781.88;5016556;28;45739;-64
2023/01/05 01:16:41;;;;;;;;;0.00;0.00;;;;;13.72;79.94;101769.63;5016543;28;45401;-64
2023/01/05 01:19:07;;;;;;;;;0.00;0.00;;;;;13.66;79.22;101769.91;5016724;28;45377;-64
2023/01/05 01:21:33;;;;;;;;;0.67;0.67;;;;;13.79;79.45;101787.06;5016201;28;46446;-66
2023/01/05 01:23:59;;;;;;;;;3.00;0.00;;;;;13.77;79.81;101788.94;5016186;28;45265;-64
2023/01/05 01:26:24;;;;;;;;;0.00;0.00;;;;;13.71;79.20;101774.09;5016311;28;45376;-67
2023/01/05 01:28:50;;;;;;;;;0.00;0.00;;;;;13.71;79.33;101778.56;4998801;28;45638;-65
2023/01/05 01:31:15;;;;;;;;;1.00;0.00;;;;;13.72;78.98;101777.63;5015744;28;46175;-65
2023/01/05 01:33:40;;;;;;;;;0.00;0.00;;;;;13.74;78.77;101783.75;5016223;28;45345;-64
2023/01/05 01:36:08;;;;;;;;;0.00;0.00;;;;;13.65;79.14;101777.06;5016486;28;45220;-64
2023/01/05 01:38:34;;;;;;;;;2.00;1.00;;;;;13.68;79.49;101778.75;5016291;28;45483;-66
2023/01/05 01:41:02;;;;;;;;;0.00;0.00;;;;;13.69;79.41;101792.03;5016200;28;46371;-65
2023/01/05 01:43:45;;;;;;;;;0.00;0.00;;;;;13.70;79.61;101792.88;5016106;28;45443;-66
2023/01/05 01:46:11;;;;;;;;;0.67;0.00;;;;;13.64;79.31;101782.50;5016141;28;45408;-65
2023/01/05 01:48:39;;;;;;;;;0.00;0.00;;;;;13.72;79.38;101791.00;4998477;28;45475;-68
2023/01/05 01:51:11;;;;;;;;;0.00;0.00;;;;;13.73;79.42;101795.41;5015852;28;45245;-67
2023/01/05 01:53:41;;;;;;;;;0.00;0.00;;;;;13.69;79.17;101796.50;5015972;28;45486;-66
2023/01/05 01:56:10;;;;;;;;;0.00;0.00;;;;;13.73;79.53;101803.44;5016045;28;45434;-66
2023/01/05 01:58:37;;;;;;;;;0.00;0.00;;;;;13.71;79.63;101797.28;5015949;28;45493;-64
2023/01/05 02:01:02;;;;;;;;;0.00;0.00;;;;;13.69;79.85;101796.50;5015721;28;46267;-64
2023/01/05 02:03:29;;;;;;;;;0.00;0.00;;;;;13.67;79.23;101793.91;5015592;28;45391;-64
2023/01/05 02:05:55;;;;;;;;;0.00;0.00;;;;;13.70;80.18;101798.25;5015295;28;45225;-65
2023/01/05 02:08:30;;;;;;;;;1.00;0.00;;;;;13.69;79.16;101799.19;5016209;28;45260;-66
2023/01/05 02:11:01;;;;;;;;;0.33;0.33;;;;;13.67;79.56;101798.38;5016002;28;46152;-64
2023/01/05 02:13:53;;;;;;;;;0.00;0.00;;;;;13.65;79.71;101792.22;5035615;28;45423;-64
2023/01/05 02:16:18;;;;;;;;;0.00;0.00;;;;;13.63;78.94;101802.16;5019947;28;45355;-65
2023/01/05 02:19:10;;;;;;;;;1.00;0.00;;;;;13.59;78.45;101796.09;5039446;28;45418;-64
2023/01/05 02:22:04;;;;;;;;;0.00;0.00;;;;;13.49;77.97;101790.31;5011926;28;45587;-67
2023/01/05 02:25:07;;;;;;;;;0.00;0.00;;;;;13.53;77.15;101807.94;5023217;28;45371;-64
2023/01/05 02:27:42;;;;;;;;;1.00;0.00;;;;;13.52;77.00;101810.69;5021170;28;45364;-64
2023/01/05 02:30:22;;;;;;;;;0.00;0.00;;;;;13.54;77.17;101809.69;5021714;28;45406;-66
2023/01/05 02:33:10;;;;;;;;;0.33;0.33;;;;;13.52;76.92;101819.56;5021354;28;45362;-64
2023/01/05 02:35:48;;;;;;;;;0.00;0.00;;;;;13.53;76.87;101815.94;5039230;28;45261;-65
2023/01/05 02:38:28;;;;;;;;;1.00;0.00;;;;;13.50;77.45;101816.09;5039852;28;45343;-62
2023/01/05 02:41:02;;;;;;;;;1.00;1.00;;;;;13.45;76.56;101811.94;5039965;28;45530;-64
2023/01/05 02:43:27;;;;;;;;;0.00;0.00;;;;;13.52;76.61;101816.91;5021640;28;46336;-65
2023/01/05 02:45:54;;;;;;;;;3.00;0.00;;;;;13.53;76.07;101809.75;5038937;28;45245;-66
2023/01/05 02:48:20;;;;;;;;;1.00;1.00;;;;;13.53;76.72;101813.28;5038814;28;45397;-65
2023/01/05 02:50:59;;;;;;;;;0.00;0.00;;;;;13.50;76.27;101808.09;5038742;28;45305;-66
2023/01/05 02:53:35;;;;;;;;;1.00;1.00;;;;;13.45;76.38;101798.56;5037815;28;45343;-63
2023/01/05 02:56:30;;;;;;;;;2.33;0.00;;;;;13.44;76.24;101808.41;5038269;28;45274;-64
2023/01/05 02:59:14;;;;;;;;;2.33;0.00;;;;;13.38;76.23;101798.00;4995819;28;45393;-65
2023/01/05 03:01:48;;;;;;;;;1.67;0.33;;;;;13.44;76.52;101811.06;5018533;28;45538;-64
2023/01/05 03:04:23;;;;;;;;;2.00;0.00;;;;;13.38;76.47;101798.00;5018628;28;45983;-67
2023/01/05 03:06:57;;;;;;;;;0.67;0.33;;;;;13.38;76.74;101800.66;5018265;28;45464;-66
2023/01/05 03:09:27;;;;;;;;;2.00;1.00;;;;;13.41;76.66;101808.56;5018599;28;45304;-64
2023/01/05 03:14:53;;;;;;;;;2.00;0.00;;;;;13.42;76.68;101804.94;5018317;28;45740;-63
2023/01/05 03:17:38;;;;;;;;;1.00;0.00;;;;;13.41;76.88;101795.19;5000412;28;45504;-65
2023/01/05 03:20:05;;;;;;;;;0.00;0.00;;;;;13.46;76.40;101816.34;5018693;28;45419;-65
2023/01/05 03:36:48;;;;;;;;;0.00;0.00;;;;;13.34;76.71;101791.09;5017684;28;45392;-65
2023/01/05 03:39:15;;;;;;;;;0.00;0.00;;;;;13.43;76.25;101809.34;5018110;28;45222;-65
2023/01/05 03:41:41;;;;;;;;;2.00;0.00;;;;;13.43;76.11;101817.38;5017956;28;45276;-66
2023/01/05 03:44:07;;;;;;;;;1.00;0.00;;;;;13.44;76.42;101812.88;5017967;28;45620;-66
2023/01/05 03:46:33;;;;;;;;;0.67;0.67;;;;;13.44;76.26;101815.56;5017595;28;45328;-68
2023/01/05 03:48:58;;;;;;;;;1.00;0.00;;;;;13.37;76.01;101809.63;5017900;28;45491;-66
2023/01/05 03:51:24;;;;;;;;;1.00;1.00;;;;;13.35;77.12;101813.31;5017763;28;45365;-65
2023/01/05 03:53:49;;;;;;;;;0.00;0.00;;;;;13.39;76.74;101810.41;5017994;28;45238;-65
2023/01/05 03:56:14;;;;;;;;;0.00;0.00;;;;;13.39;76.53;101813.09;5017559;28;45423;-65
2023/01/05 03:58:40;;;;;;;;;0.00;0.00;;;;;13.47;76.42;101828.75;4999561;28;45414;-65
2023/01/05 04:01:06;;;;;;;;;0.00;0.00;;;;;13.46;76.21;101825.22;5017770;28;45291;-64
2023/01/05 04:03:31;;;;;;;;;2.00;0.33;;;;;13.51;76.90;101825.00;5017970;28;45529;-65
2023/01/05 04:05:57;;;;;;;;;0.00;0.00;;;;;13.50;76.15;101826.81;5017593;28;45411;-66
2023/01/05 04:08:22;;;;;;;;;0.67;0.33;;;;;13.50;76.86;101828.59;5017642;28;45364;-66
2023/01/05 04:10:51;;;;;;;;;0.67;0.67;;;;;13.44;76.71;101808.41;5017689;28;45439;-63
2023/01/05 04:13:16;;;;;;;;;2.00;0.00;;;;;13.53;76.58;101818.63;5014911;28;45460;-65
2023/01/05 04:15:42;;;;;;;;;0.67;0.00;;;;;13.49;76.53;101800.16;5015663;28;47860;-65
2023/01/05 04:18:07;;;;;;;;;3.67;0.00;;;;;13.51;76.16;101808.97;5017287;28;45432;-65
2023/01/05 04:20:32;;;;;;;;;0.00;0.00;;;;;13.61;76.71;101825.41;5016104;28;45411;-64
2023/01/05 04:22:58;;;;;;;;;1.00;1.00;;;;;13.55;76.92;101803.41;5017815;28;45625;-67
2023/01/05 04:25:23;;;;;;;;;0.00;0.00;;;;;13.56;76.97;101821.16;5017351;28;46723;-66
2023/01/05 04:27:48;;;;;;;;;0.00;0.00;;;;;13.55;77.28;101822.13;5017180;28;45412;-65
2023/01/05 04:30:14;;;;;;;;;1.00;1.00;;;;;13.44;77.36;101802.19;5016204;28;45400;-66
2023/01/05 04:32:39;;;;;;;;;2.00;0.00;;;;;13.48;76.99;101815.31;5017658;28;45637;-64
2023/01/05 04:35:05;;;;;;;;;2.67;1.00;;;;;13.50;77.43;101818.78;5017047;28;45471;-67
2023/01/05 04:37:30;;;;;;;;;0.00;0.00;;;;;13.50;77.69;101824.13;5017536;28;45380;-62
2023/01/05 04:39:55;;;;;;;;;0.00;0.00;;;;;13.52;77.47;101821.38;5016209;28;45218;-63
2023/01/05 04:42:21;;;;;;;;;2.00;0.00;;;;;13.50;77.39;101826.81;5017249;28;45221;-63
2023/01/05 04:44:46;;;;;;;;;1.00;1.00;;;;;13.51;77.95;101825.84;5015628;28;46115;-62
2023/01/05 04:47:12;;;;;;;;;1.00;0.00;;;;;13.50;78.05;101824.13;5016725;28;45468;-64
2023/01/05 04:49:37;;;;;;;;;0.00;0.00;;;;;13.52;78.01;101822.25;5015797;28;45412;-63
2023/01/05 04:52:02;;;;;;;;;1.33;0.00;;;;;13.43;77.87;101809.34;5017655;28;45300;-63
2023/01/05 04:54:28;;;;;;;;;0.00;0.00;;;;;13.40;77.93;101800.59;5015841;28;45535;-63
2023/01/05 04:56:53;;;;;;;;;0.00;0.00;;;;;13.47;78.20;101813.59;5016664;28;45217;-63
2023/01/05 04:59:19;;;;;;;;;2.00;0.00;;;;;13.52;78.27;101814.22;5016744;28;45190;-62
2023/01/05 05:01:44;;;;;;;;;2.67;0.00;;;;;13.47;78.13;101802.03;4999212;28;45652;-64
2023/01/05 05:04:10;;;;;;;;;0.67;0.00;;;;;13.48;77.67;101806.44;5016473;28;46098;-64
2023/01/05 05:06:35;;;;;;;;;0.00;0.00;;;;;13.04;78.11;101739.97;5016502;28;45355;-64
2023/01/05 05:09:01;;;;;;;;;0.00;0.00;;;;;13.51;78.35;101809.81;5017055;28;45659;-64
2023/01/05 05:11:26;;;;;;;;;0.00;0.00;;;;;13.51;77.84;101814.31;5016591;28;45481;-62
2023/01/05 05:13:51;;;;;;;;;2.00;0.00;;;;;13.48;78.39;101809.97;5016185;28;46282;-63
2023/01/05 05:16:17;;;;;;;;;0.00;0.00;;;;;13.49;77.82;101810.84;5016481;28;45345;-63
2023/01/05 05:18:42;;;;;;;;;1.33;0.00;;;;;13.50;78.35;101816.09;5015675;28;45441;-66
2023/01/05 05:21:07;;;;;;;;;0.00;0.00;;;;;13.49;78.52;101819.72;4998713;28;45400;-65
2023/01/05 05:23:33;;;;;;;;;0.00;0.00;;;;;13.44;78.46;101805.72;5016207;28;49812;-66
2023/01/05 05:25:58;;;;;;;;;2.33;0.00;;;;;13.49;78.61;101821.53;5015965;28;45455;-65
2023/01/05 05:28:26;;;;;;;;;0.00;0.00;;;;;13.45;78.88;101804.78;5016329;28;45455;-64
2023/01/05 05:30:53;;;;;;;;;0.00;0.00;;;;;13.44;78.92;101816.41;5016767;28;45536;-66
2023/01/05 05:33:19;;;;;;;;;0.00;0.00;;;;;13.47;79.49;101816.25;5015842;28;45260;-66
2023/01/05 05:35:44;;;;;;;;;1.00;0.00;;;;;13.47;79.00;101813.59;5015768;28;48279;-65
2023/01/05 05:38:09;;;;;;;;;0.00;0.00;;;;;13.44;79.20;101818.22;5016176;28;45365;-65
2023/01/05 05:40:35;;;;;;;;;0.00;0.00;;;;;13.37;79.04;101801.59;5016690;28;45590;-66
2023/01/05 05:43:00;;;;;;;;;0.00;0.00;;;;;13.39;79.42;101805.06;5015971;28;46539;-66
2023/01/05 05:45:25;;;;;;;;;1.33;0.00;;;;;13.27;79.75;101786.97;5016029;28;45482;-67
2023/01/05 05:47:51;;;;;;;;;1.00;0.00;;;;;13.31;79.66;101798.38;5016393;28;45477;-65
2023/01/05 05:50:16;;;;;;;;;0.00;0.00;;;;;13.37;79.96;101806.09;5016712;28;45327;-65
2023/01/05 05:52:42;;;;;;;;;0.00;0.00;;;;;13.37;79.56;101806.09;5002123;28;46921;-65
2023/01/05 05:55:08;;;;;;;;;0.00;0.00;;;;;13.44;79.58;101828.91;5019966;28;45688;-64
2023/01/05 05:57:33;;;;;;;;;0.67;0.00;;;;;13.45;80.12;101826.16;5019643;28;45376;-66
2023/01/05 05:59:59;;;;;;;;;0.00;0.00;;;;;13.46;79.77;101833.25;5019154;28;45596;-64
2023/01/05 06:02:24;;;;;;;;;0.00;0.00;;;;;13.41;79.48;101819.25;5001783;28;48144;-65
2023/01/05 06:04:50;;;;;;;;;0.00;0.00;;;;;13.39;79.90;101820.25;5019579;28;45193;-66
2023/01/05 06:07:15;;;;;;;;;0.00;0.00;;;;;13.49;79.57;101838.44;5013270;28;51470;-67
2023/01/05 06:09:41;;;;;;;;;1.67;0.67;;;;;13.46;79.11;101833.25;5019564;28;45194;-65
2023/01/05 06:12:06;;;;;;;;;0.00;0.00;;;;;13.50;79.51;101839.28;5028450;28;46563;-65
2023/01/05 06:14:32;;;;;;;;;0.00;0.00;;;;;13.44;79.54;101827.09;5039288;28;45331;-66
2023/01/05 06:16:57;;;;;;;;;0.00;0.00;;;;;13.57;79.76;101852.31;5021330;28;45293;-67
2023/01/05 06:19:22;;;;;;;;;0.00;0.00;;;;;13.58;79.32;101856.72;5001877;28;45494;-67
2023/01/05 06:21:48;;;;;;;;;0.00;0.00;;;;;13.59;79.87;101860.25;5018992;28;45746;-66
2023/01/05 06:24:14;;;;;;;;;2.00;2.00;;;;;13.57;79.24;101846.97;5026829;28;45376;-65
2023/01/05 06:26:39;;;;;;;;;0.00;0.00;;;;;13.62;79.81;101854.75;5039249;28;45301;-65
2023/01/05 06:29:05;;;;;;;;;0.33;0.00;;;;;13.64;79.44;101857.34;5039437;28;45364;-66
2023/01/05 06:31:30;;;;;;;;;0.00;0.00;;;;;13.61;79.45;101865.50;5038837;28;45336;-64
2023/01/05 06:33:55;;;;;;;;;0.00;0.00;;;;;13.62;79.25;101864.56;5038705;28;45357;-64
2023/01/05 06:36:21;;;;;;;;;0.00;0.00;;;;;13.64;79.52;101868.03;5038678;28;45392;-65
2023/01/05 06:38:46;;;;;;;;;0.00;0.00;;;;;13.65;79.38;101869.75;5039090;28;45653;-66
2023/01/05 06:41:12;;;;;;;;;0.00;0.00;;;;;13.66;79.08;101864.34;5031470;28;45475;-66
2023/01/05 06:43:37;;;;;;;;;1.00;0.00;;;;;13.62;79.52;101853.88;5018901;28;45455;-66
2023/01/05 06:46:03;;;;;;;;;0.00;0.00;;;;;13.70;79.65;101870.41;5000890;28;45335;-67
2023/01/05 06:48:28;;;;;;;;;0.00;0.00;;;;;13.69;79.62;101871.38;5001283;28;45697;-65
2023/01/05 06:50:57;;;;;;;;;0.00;0.00;;;;;13.72;79.62;101871.22;5018597;28;45899;-65
2023/01/05 06:53:22;;;;;;;;;0.00;0.00;;;;;13.68;79.22;101874.97;5018430;28;45318;-67
2023/01/05 06:55:48;;;;;;;;;0.33;0.00;;;;;13.74;79.46;101883.56;5018837;28;45808;-66
2023/01/05 06:58:13;;;;;;;;;0.00;0.00;;;;;13.75;79.73;101881.75;5019046;28;45576;-67
2023/01/05 07:00:38;;;;;;;;;0.00;0.00;;;;;13.78;79.42;101876.25;5018771;28;45588;-67
2023/01/05 07:03:06;;;;;;;;;0.00;0.00;;;;;13.74;79.62;101872.00;5017576;28;45340;-65
2023/01/05 07:05:32;;;;;;;;;0.00;0.00;;;;;13.73;79.92;101873.81;5018386;28;45422;-65
2023/01/05 07:07:57;;;;;;;;;0.00;0.00;;;;;13.64;79.96;101862.69;5000491;28;45332;-64
2023/01/05 07:10:22;;;;;;;;;0.00;0.00;;;;;13.74;79.89;101880.88;5017483;28;46263;-65
2023/01/05 07:12:48;;;;;;;;;0.00;0.00;;;;;13.67;80.17;101873.22;5014691;28;45399;-64
2023/01/05 07:15:13;;;;;;;;;0.00;0.00;;;;;13.78;80.20;101886.94;5020108;28;45440;-66
2023/01/05 07:17:39;;;;;;;;;0.00;0.00;;;;;13.80;80.52;101888.63;5038771;28;45352;-66
2023/01/05 07:20:06;;;;;;;;;1.00;0.00;;;;;13.76;80.00;101867.44;5037857;28;46323;-67
2023/01/05 07:22:32;;;;;;;;;0.00;0.00;;;;;13.78;80.06;101878.91;5020174;28;45826;-66
2023/01/05 07:24:58;;;;;;;;;0.00;0.00;;;;;13.83;80.01;101882.25;5038006;28;45803;-67
2023/01/05 07:27:24;;;;;;;;;0.67;0.67;;;;;13.90;79.83;101883.66;5038232;28;45340;-67
2023/01/05 07:29:49;;;;;;;;;1.00;1.00;;;;;13.91;80.14;101888.06;5037936;28;46314;-68
2023/01/05 07:32:15;;;;;;;;;0.67;0.67;;;;;13.82;80.03;101867.16;5037583;28;45328;-66
2023/01/05 07:34:40;;;;;;;;;0.00;0.00;;;;;13.92;80.04;101883.59;5019968;28;45418;-67
2023/01/05 07:37:05;;;;;;;;;1.67;0.33;;;;;13.92;79.50;101887.13;5038128;28;45601;-68
2023/01/05 07:39:31;;;;;;;;;2.00;0.00;;;;;13.92;79.67;101879.09;5037512;28;45852;-64
2023/01/05 07:41:56;;;;;;;;;1.67;1.00;;;;;13.99;79.50;101887.69;5019682;28;45368;-65
2023/01/05 07:44:22;;;;;;;;;0.67;0.67;;;;;14.00;80.23;101884.94;5019950;28;45470;-64
2023/01/05 07:46:48;;;;;;;;;2.00;1.00;;;;;14.02;79.99;101890.22;5020170;28;45534;-65
2023/01/05 07:49:14;;;;;;;;;0.00;0.00;;;;;14.03;80.38;101884.78;5037895;28;45348;-66
2023/01/05 07:51:39;;;;;;;;;1.33;0.00;;;;;14.04;79.65;101886.50;5019672;28;45455;-60
2023/01/05 07:54:05;;;;;;;;;0.00;0.00;;;;;14.02;79.63;101880.38;5037314;28;45238;-60
2023/01/05 07:56:30;;;;;;;;;0.33;0.00;;;;;14.04;80.13;101894.53;5037743;28;45522;-62
2023/01/05 07:58:55;;;;;;;;;0.67;0.67;;;;;13.93;79.80;101866.59;5037384;28;45552;-59
2023/01/05 08:01:21;;;;;;;;;0.67;0.67;;;;;13.88;80.14;101866.81;5037357;28;45220;-58
2023/01/05 08:03:47;;;;;;;;;1.00;1.00;;;;;14.06;79.65;101886.44;5037333;28;45230;-63
2023/01/05 08:06:14;;;;;;;;;1.00;1.00;;;;;14.02;80.07;101879.50;5037558;28;45463;-63
2023/01/05 08:08:40;;;;;;;;;1.00;1.00;;;;;14.06;79.95;101900.72;5037248;28;46138;-67
2023/01/05 08:11:08;;;;;;;;;1.00;0.00;;;;;14.01;80.11;101878.66;5037114;28;45368;-61
2023/01/05 08:16:18;;;;;;;;;0.00;0.00;;;;;13.97;80.49;101898.47;5022919;28;45347;-66
2023/01/05 08:18:43;;;;;;;;;1.00;1.00;;;;;14.00;80.77;101901.00;5000216;28;45340;-65
2023/01/05 08:21:08;;;;;;;;;1.00;1.00;;;;;14.01;80.44;101897.38;5017635;28;45510;-67
2023/01/05 08:23:36;;;;;;;;;0.00;0.00;;;;;14.01;80.95;101902.72;4999766;28;45413;-65
2023/01/05 08:26:07;;;;;;;;;0.00;0.00;;;;;14.01;80.43;101896.50;5018152;28;45206;-71
2023/01/05 08:28:34;;;;;;;;;1.00;1.00;;;;;14.03;80.74;101897.28;5016949;28;46290;-63
2023/01/05 08:31:01;;;;;;;;;1.00;1.00;;;;;14.09;80.40;101905.91;5017261;28;45385;-64
2023/01/05 08:33:27;;;;;;;;;2.00;1.00;;;;;13.99;80.08;101885.88;5017594;28;45316;-66
2023/01/05 08:35:53;;;;;;;;;0.33;0.00;;;;;14.08;80.57;101901.50;4999681;28;45623;-65
2023/01/05 08:38:23;;;;;;;;;1.00;1.00;;;;;14.11;80.20;101913.84;5016597;28;46449;-66
2023/01/05 08:40:48;;;;;;;;;0.00;0.00;;;;;14.11;80.37;101906.69;5000201;28;45328;-65
2023/01/05 08:43:14;;;;;;;;;1.33;1.00;;;;;14.06;80.26;101889.09;5000337;28;45475;-65
2023/01/05 08:45:40;;;;;;;;;1.00;1.00;;;;;14.09;80.21;101892.53;4999675;28;45495;-62
2023/01/05 08:48:05;;;;;;;;;0.00;0.00;;;;;14.10;79.98;101896.94;5016746;28;46234;-66
2023/01/05 08:50:31;;;;;;;;;3.00;1.33;;;;;14.20;79.54;101907.19;5016812;28;45223;-62
2023/01/05 08:52:57;;;;;;;;;2.33;0.33;;;;;14.17;79.94;101906.34;5016722;28;45376;-67
2023/01/05 08:55:22;;;;;;;;;4.33;1.00;;;;;14.19;79.50;101903.59;4999044;28;45328;-62
2023/01/05 08:57:48;;;;;;;;;0.00;0.00;;;;;14.23;79.48;101904.34;5016647;28;45363;-63
2023/01/05 09:00:16;;;;;;;;;0.00;0.00;;;;;14.26;79.35;101901.50;4999379;28;45236;-63
2023/01/05 09:02:42;;;;;;;;;0.67;0.00;;;;;14.11;79.24;101879.06;4999084;28;45388;-64
2023/01/05 09:05:08;;;;;;;;;0.00;0.00;;;;;14.30;79.00;101906.59;5017214;28;45926;-65
2023/01/05 09:07:36;;;;;;;;;0.00;0.00;;;;;14.28;78.70;101896.94;5017199;28;46181;-68
2023/01/05 09:10:02;;;;;;;;;3.67;1.00;;;;;14.33;79.18;101905.63;5017058;28;45236;-65
2023/01/05 09:12:28;;;;;;;;;2.33;1.00;;;;;14.38;78.85;101903.56;5016616;28;45242;-65
2023/01/05 09:14:54;;;;;;;;;2.33;2.00;;;;;14.33;78.87;101884.19;5016900;28;45637;-65
2023/01/05 09:17:19;;;;;;;;;1.00;0.00;;;;;14.38;78.39;101893.72;5016945;28;45383;-64
2023/01/05 09:19:44;;;;;;;;;2.00;0.00;;;;;14.39;78.35;101891.91;5016833;28;45382;-63
2023/01/05 09:22:10;;;;;;;;;1.00;1.00;;;;;14.46;77.90;101904.06;5016745;28;45446;-67
2023/01/05 09:24:35;;;;;;;;;0.00;0.00;;;;;14.45;78.25;101899.63;4998418;28;45420;-63
2023/01/05 09:27:06;;;;;;;;;0.00;0.00;;;;;14.51;78.15;101910.03;4997794;28;48074;-65
2023/01/05 09:29:31;;;;;;;;;0.67;0.00;;;;;14.43;78.84;101896.13;5016197;28;45527;-61
2023/01/05 09:31:57;;;;;;;;;0.00;0.00;;;;;14.67;79.83;101918.13;5015851;28;45236;-59
2023/01/05 09:34:22;;;;;;;;;1.00;1.00;;;;;14.72;77.54;101908.94;4998962;28;45171;-59
2023/01/05 09:36:47;;;;;;;;;0.00;0.00;;;;;14.81;78.93;101912.06;4998819;28;46219;-58
2023/01/05 09:39:13;;;;;;;;;1.00;1.00;;;;;14.89;78.30;101923.25;5015958;28;45177;-57
2023/01/05 09:41:49;;;;;;;;;1.00;1.00;;;;;14.85;78.37;101902.94;5015833;28;45253;-58
2023/01/05 09:44:36;;;;;;;;;1.00;1.00;;;;;14.96;76.70;101920.13;5016519;28;45404;-70
2023/01/05 09:47:17;;;;;;;;;1.00;1.00;;;;;14.94;76.71;101913.13;4997818;28;47781;-68
2023/01/05 09:49:44;;;;;;;;;1.00;1.00;;;;;14.94;76.37;101915.81;5015635;28;45319;-65
2023/01/05 09:52:11;;;;;;;;;0.00;0.00;;;;;14.89;76.50;101913.41;5016023;28;45203;-67
2023/01/05 09:54:38;;;;;;;;;0.00;0.00;;;;;14.88;77.33;101921.53;5016110;28;45683;-58
2023/01/05 09:57:06;;;;;;;;;2.33;0.00;;;;;14.86;76.44;101918.06;5015770;28;45418;-64
2023/01/05 09:59:36;;;;;;;;;0.00;0.00;;;;;14.86;76.32;101915.38;5015616;28;45221;-59
2023/01/05 10:02:17;;;;;;;;;1.00;1.00;;;;;14.91;76.93;101926.69;4981577;28;45330;-65
2023/01/05 10:04:43;;;;;;;;;1.67;1.67;;;;;14.97;76.56;101924.59;5015793;28;45354;-62
2023/01/05 10:07:18;;;;;;;;;0.00;0.00;;;;;14.94;76.53;101915.81;5015409;28;45373;-62
2023/01/05 10:09:46;;;;;;;;;1.00;1.00;;;;;14.99;76.68;101928.03;5015628;28;45383;-64
2023/01/05 10:15:32;;;;;;;;;1.00;0.00;;;;;14.94;76.86;101932.75;5022567;28;45362;-65
2023/01/05 10:18:07;;;;;;;;;2.00;1.00;;;;;14.92;76.89;101936.47;5035472;28;45378;-67
2023/01/05 10:20:57;;;;;;;;;1.00;1.00;;;;;14.96;77.20;101927.31;5035659;28;45325;-70
2023/01/05 10:24:00;;;;;;;;;1.00;1.00;;;;;14.90;76.97;101938.38;5036282;28;45374;-63
2023/01/05 10:27:13;;;;;;;;;3.00;1.00;;;;;14.88;77.02;101929.56;5018545;28;45565;-66
2023/01/05 10:29:44;;;;;;;;;0.67;0.67;;;;;14.80;77.05;101921.03;5017735;28;46219;-60
2023/01/05 10:32:51;;;;;;;;;0.00;0.00;;;;;14.85;77.31;101929.72;5035446;28;45358;-66
2023/01/05 10:35:28;;;;;;;;;0.00;0.00;;;;;14.87;77.13;101935.84;4954248;28;45292;-64
2023/01/05 10:38:19;;;;;;;;;0.00;0.00;;;;;14.87;77.18;101934.03;5029173;28;45391;-64
2023/01/05 10:41:25;;;;;;;;;0.67;0.67;;;;;14.81;77.45;101920.97;5038636;28;46554;-63
2023/01/05 10:44:10;;;;;;;;;1.33;1.00;;;;;14.87;77.47;101922.47;5021060;28;45314;-65
2023/01/05 10:46:41;;;;;;;;;2.00;0.00;;;;;14.83;78.27;101928.91;4997706;28;45357;-64
2023/01/05 10:49:15;;;;;;;;;0.67;0.00;;;;;14.74;78.33;101907.03;5038791;28;45385;-65
2023/01/05 10:51:41;;;;;;;;;5.33;1.00;;;;;14.82;78.02;101919.16;5038157;28;46591;-65
2023/01/05 10:54:25;;;;;;;;;1.00;1.00;;;;;14.84;78.24;101918.13;5020870;28;45293;-64
2023/01/05 10:56:51;;;;;;;;;0.33;0.33;;;;;14.75;77.75;101914.13;5039153;28;45423;-64
2023/01/05 10:59:16;;;;;;;;;0.00;0.00;;;;;14.80;78.24;101913.00;5039004;28;45390;-64
2023/01/05 11:01:45;;;;;;;;;0.00;0.00;;;;;14.86;78.19;101913.56;5038356;28;45547;-64
2023/01/05 11:04:18;;;;;;;;;0.00;0.00;;;;;14.87;78.25;101901.03;5038418;28;45285;-62
2023/01/05 11:06:45;;;;;;;;;0.00;0.00;;;;;14.96;78.09;101900.53;5038144;28;45481;-66
2023/01/05 11:09:21;;;;;;;;;2.00;1.00;;;;;15.05;77.73;101883.97;5038646;28;45609;-63
2023/01/05 11:12:15;;;;;;;;;1.00;1.00;;;;;15.13;78.08;101881.75;5020182;28;45342;-67
2023/01/05 11:14:46;;;;;;;;;0.00;0.00;;;;;15.13;78.35;101881.75;5018393;28;45352;-66
2023/01/05 11:17:18;;;;;;;;;1.00;1.00;;;;;15.06;78.63;101880.34;5038489;28;45300;-64
2023/01/05 11:19:48;;;;;;;;;1.00;1.00;;;;;15.04;79.37;101882.25;5038122;28;45179;-65
2023/01/05 11:22:42;;;;;;;;;2.00;0.00;;;;;15.01;78.89;101882.41;5038027;28;46017;-66
2023/01/05 11:25:20;;;;;;;;;11.33;9.00;;;;;15.01;79.57;101871.69;5020084;28;45396;-65
2023/01/05 11:27:45;;;;;;;;;1.00;1.00;;;;;15.04;79.28;101871.53;5038130;28;45269;-66
2023/01/05 11:30:13;;;;;;;;;2.00;0.00;;;;;15.02;79.04;101878.78;5038263;28;45598;-65
2023/01/05 11:32:42;;;;;;;;;0.00;0.00;;;;;14.99;79.03;101869.09;5038041;28;47654;-63
2023/01/05 11:35:29;;;;;;;;;0.00;0.00;;;;;14.90;79.46;101863.38;5020236;28;45466;-64
2023/01/05 11:37:56;;;;;;;;;1.00;0.00;;;;;14.93;79.30;101857.84;5038308;28;45419;-65
2023/01/05 11:40:26;;;;;;;;;1.00;1.00;;;;;14.96;79.06;101854.97;5038353;28;45323;-64
2023/01/05 11:42:52;;;;;;;;;1.00;1.00;;;;;15.10;78.83;101868.50;5038074;28;47696;-65
2023/01/05 11:45:28;;;;;;;;;1.00;1.00;;;;;15.09;78.52;101868.56;5019941;28;45484;-63
2023/01/05 11:48:07;;;;;;;;;1.00;1.00;;;;;15.08;78.60;101859.69;5019838;28;45375;-63
2023/01/05 11:50:48;;;;;;;;;1.00;1.00;;;;;15.07;78.72;101866.00;5037701;28;45309;-62
2023/01/05 11:53:23;;;;;;;;;1.00;1.00;;;;;15.01;78.62;101860.97;5037305;28;45398;-65
2023/01/05 11:56:00;;;;;;;;;1.00;1.00;;;;;15.00;78.68;101860.13;5036586;28;45475;-65
2023/01/05 11:58:30;;;;;;;;;1.67;1.00;;;;;15.00;78.95;101864.59;5037900;28;45442;-62
2023/01/05 12:01:04;;;;;;;;;1.33;1.33;;;;;14.96;79.56;101853.16;5038228;28;45339;-63
2023/01/05 12:04:02;;;;;;;;;2.00;2.00;;;;;14.96;79.93;101854.97;5037523;28;45542;-62
2023/01/05 12:06:57;;;;;;;;;0.33;0.33;;;;;14.97;80.03;101846.00;5037829;28;45447;-63
2023/01/05 12:09:38;;;;;;;;;3.00;2.00;;;;;14.92;79.67;101845.41;5024440;28;45420;-65